Time;durP1;ratioP1;P1;durP2;ratioP2;P2;SDS_P1;SDS_P2;PMS_P1;PMS_P2;Temp;Humidity;BMP_temperature;BMP_pressure;BME280_temperature;BME280_humidity;BME280_pressure;Samples;Min_cycle;Max_cycle;Signal;HPM_P1;HPM_P2
2021/01/11 00:02:18;;;;;;;14.85;5.88;;;4.10;99.90;;;;;;5033452;28;20021;-74
2021/01/11 00:04:44;;;;;;;13.65;6.00;;;4.10;99.90;;;;;;5033571;28;20108;-74
2021/01/11 00:07:12;;;;;;;15.32;6.68;;;4.10;99.90;;;;;;5033265;28;20018;-74
2021/01/11 00:09:38;;;;;;;13.82;5.88;;;4.10;99.90;;;;;;5033550;28;20037;-74
2021/01/11 00:12:05;;;;;;;16.52;7.45;;;4.10;99.90;;;;;;5033620;28;20029;-74
2021/01/11 00:14:31;;;;;;;13.63;6.03;;;4.10;99.90;;;;;;5033656;28;20018;-74
2021/01/11 00:16:56;;;;;;;13.75;6.07;;;4.10;99.90;;;;;;5033396;28;20028;-74
2021/01/11 00:19:22;;;;;;;14.70;6.05;;;4.20;99.90;;;;;;5015714;28;20021;-74
2021/01/11 00:21:51;;;;;;;16.65;6.85;;;4.20;99.90;;;;;;5033647;28;20033;-74
2021/01/11 00:24:16;;;;;;;15.80;7.00;;;4.20;99.90;;;;;;5033756;28;20021;-74
2021/01/11 00:26:53;;;;;;;18.95;7.05;;;4.20;99.90;;;;;;5015685;28;20036;-74
2021/01/11 00:29:19;;;;;;;15.25;6.43;;;4.10;99.90;;;;;;5015550;28;20091;-74
2021/01/11 00:31:57;;;;;;;14.07;6.13;;;4.10;99.90;;;;;;5035509;28;20112;-74
2021/01/11 00:34:23;;;;;;;18.55;7.90;;;4.10;99.90;;;;;;5019571;28;20167;-73
2021/01/11 00:36:50;;;;;;;16.98;7.03;;;4.20;99.90;;;;;;5037321;28;20052;-73
2021/01/11 00:39:15;;;;;;;16.30;7.45;;;4.10;99.90;;;;;;5037793;28;20039;-74
2021/01/11 00:41:41;;;;;;;16.90;7.72;;;4.30;99.90;;;;;;5037011;28;20029;-73
2021/01/11 00:44:06;;;;;;;16.55;7.82;;;4.10;99.90;;;;;;5037157;28;20053;-73
2021/01/11 00:46:32;;;;;;;17.52;7.03;;;4.20;99.90;;;;;;5019318;28;20171;-73
2021/01/11 00:48:58;;;;;;;19.77;7.97;;;4.20;99.90;;;;;;5018984;28;20548;-73
2021/01/11 00:51:24;;;;;;;19.20;8.25;;;4.20;99.90;;;;;;5036948;28;20025;-73
2021/01/11 00:53:50;;;;;;;19.52;8.25;;;4.20;99.90;;;;;;5036753;28;20026;-73
2021/01/11 00:56:18;;;;;;;18.48;8.35;;;4.20;99.90;;;;;;5019820;28;20029;-73
2021/01/11 00:58:44;;;;;;;20.25;8.82;;;4.20;99.90;;;;;;5019112;28;20071;-74
2021/01/11 01:01:11;;;;;;;17.98;8.35;;;4.20;99.90;;;;;;5036783;28;20033;-73
2021/01/11 01:03:37;;;;;;;17.77;8.10;;;4.20;99.90;;;;;;5036643;28;20384;-73
2021/01/11 01:06:13;;;;;;;20.35;8.05;;;4.10;99.90;;;;;;5036511;28;20079;-74
2021/01/11 01:08:39;;;;;;;19.02;8.18;;;4.10;99.90;;;;;;5036476;28;20421;-73
2021/01/11 01:11:05;;;;;;;22.40;9.63;;;4.10;99.90;;;;;;5036451;28;20026;-73
2021/01/11 01:13:31;;;;;;;24.25;9.75;;;4.10;99.90;;;;;;5036751;28;20056;-73
2021/01/11 01:15:59;;;;;;;20.77;8.52;;;4.10;99.90;;;;;;5036603;28;20022;-73
2021/01/11 01:18:25;;;;;;;22.70;9.77;;;4.10;99.90;;;;;;5036924;28;20025;-73
2021/01/11 01:20:50;;;;;;;23.02;10.10;;;4.10;99.90;;;;;;5036352;28;20029;-73
2021/01/11 01:23:16;;;;;;;19.35;8.80;;;4.10;99.90;;;;;;5036699;28;20033;-73
2021/01/11 01:25:41;;;;;;;20.02;9.35;;;4.10;99.90;;;;;;5036821;28;20104;-73
2021/01/11 01:28:07;;;;;;;20.65;8.77;;;4.10;99.90;;;;;;5036421;28;20053;-74
2021/01/11 01:30:33;;;;;;;24.65;8.77;;;4.10;99.90;;;;;;5018488;28;20021;-74
2021/01/11 01:32:59;;;;;;;25.23;10.25;;;4.10;99.90;;;;;;5018408;28;20033;-74
2021/01/11 01:35:25;;;;;;;26.42;10.65;;;4.10;99.90;;;;;;5035986;28;20079;-74
2021/01/11 01:37:51;;;;;;;20.23;9.20;;;4.10;99.90;;;;;;5018157;28;20022;-74
2021/01/11 01:40:16;;;;;;;22.88;10.05;;;4.10;99.90;;;;;;5036170;28;20036;-74
2021/01/11 01:42:42;;;;;;;26.70;10.43;;;4.10;99.90;;;;;;5017559;28;20025;-74
2021/01/11 01:45:08;;;;;;;23.67;10.45;;;4.00;99.90;;;;;;5036263;28;20462;-73
2021/01/11 01:47:34;;;;;;;20.90;8.63;;;4.00;99.90;;;;;;5036013;28;20028;-73
2021/01/11 01:50:03;;;;;;;24.15;10.35;;;4.00;99.90;;;;;;5035755;28;20524;-73
2021/01/11 01:52:29;;;;;;;;;;;4.00;99.90;;;;;;5036096;28;20032;-73
2021/01/11 01:54:54;;;;;;;25.23;11.15;;;4.00;99.90;;;;;;5036114;28;19909;-73
2021/01/11 01:57:20;;;;;;;26.42;9.65;;;3.90;99.90;;;;;;5018314;28;20429;-73
2021/01/11 01:59:48;;;;;;;26.23;9.68;;;4.00;99.90;;;;;;5018237;28;20063;-73
2021/01/11 02:02:17;;;;;;;29.55;12.50;;;4.00;99.90;;;;;;5035640;28;20029;-73
2021/01/11 02:04:42;;;;;;;26.98;11.70;;;4.00;99.90;;;;;;5017790;28;20031;-73
2021/01/11 02:07:23;;;;;;;28.00;12.23;;;4.00;99.90;;;;;;5035764;28;20034;-73
2021/01/11 02:10:09;;;;;;;28.33;11.52;;;4.00;99.90;;;;;;5035616;28;20026;-73
2021/01/11 02:12:48;;;;;;;31.33;11.45;;;4.00;99.90;;;;;;5017189;28;20033;-73
2021/01/11 02:15:22;;;;;;;29.85;11.13;;;4.00;99.90;;;;;;5017959;28;20017;-74
2021/01/11 02:17:53;;;;;;;31.00;12.70;;;4.00;99.90;;;;;;5036059;28;20093;-73
2021/01/11 02:20:47;;;;;;;28.80;12.85;;;3.90;99.90;;;;;;5036282;28;20374;-73
2021/01/11 02:23:50;;;;;;;30.92;12.93;;;3.90;99.90;;;;;;5036058;28;20047;-73
2021/01/11 02:26:53;;;;;;;26.98;12.18;;;3.80;99.90;;;;;;5035744;28;20040;-74
2021/01/11 02:29:46;;;;;;;28.15;11.68;;;3.70;99.90;;;;;;4989754;28;20107;-74
2021/01/11 02:32:13;;;;;;;26.63;11.45;;;3.80;99.90;;;;;;5036200;28;20033;-73
2021/01/11 02:34:40;;;;;;;30.25;12.05;;;3.90;99.90;;;;;;5035721;28;20017;-74
2021/01/11 02:37:06;;;;;;;33.33;13.75;;;3.80;99.90;;;;;;5035342;28;20022;-73
2021/01/11 02:39:32;;;;;;;28.83;12.55;;;3.80;99.90;;;;;;5035596;28;20088;-73
2021/01/11 02:41:58;;;;;;;29.05;12.77;;;3.80;99.90;;;;;;5017531;28;20084;-73
2021/01/11 02:44:23;;;;;;;31.45;13.05;;;3.80;99.90;;;;;;5035855;28;20456;-73
2021/01/11 02:46:49;;;;;;;32.75;13.18;;;3.80;99.90;;;;;;5035077;28;20030;-73
2021/01/11 02:49:26;;;;;;;31.77;12.77;;;3.80;99.90;;;;;;5035461;28;20013;-73
2021/01/11 02:52:05;;;;;;;34.70;13.40;;;3.80;99.90;;;;;;5017239;28;20112;-73
2021/01/11 02:54:45;;;;;;;30.73;13.10;;;3.90;99.90;;;;;;5035147;28;20032;-74
2021/01/11 02:57:30;;;;;;;36.83;14.60;;;3.80;99.90;;;;;;5034930;28;20021;-73
2021/01/11 03:00:16;;;;;;;33.45;13.63;;;3.80;99.90;;;;;;5035098;28;20060;-73
2021/01/11 03:02:45;;;;;;;31.65;13.27;;;3.80;99.90;;;;;;5035300;28;20486;-73
2021/01/11 03:05:12;;;;;;;32.45;14.02;;;3.80;99.90;;;;;;5034697;28;20052;-73
2021/01/11 03:07:38;;;;;;;35.35;14.63;;;3.80;99.90;;;;;;5034796;28;20466;-73
2021/01/11 03:10:05;;;;;;;33.25;14.82;;;3.80;99.90;;;;;;5016797;28;20080;-73
2021/01/11 03:12:31;;;;;;;33.13;13.60;;;3.80;99.90;;;;;;5017262;28;20029;-73
2021/01/11 03:14:56;;;;;;;34.17;16.02;;;3.80;99.90;;;;;;5017111;28;20020;-73
2021/01/11 03:17:22;;;;;;;36.85;15.75;;;3.80;99.90;;;;;;5034263;28;20092;-73
2021/01/11 03:19:48;;;;;;;36.80;16.92;;;3.80;99.90;;;;;;5034561;28;20032;-73
2021/01/11 03:22:13;;;;;;;41.70;15.93;;;3.70;99.90;;;;;;5017078;28;20386;-73
2021/01/11 03:24:40;;;;;;;36.80;15.90;;;3.60;99.90;;;;;;5016825;28;20466;-73
2021/01/11 03:27:05;;;;;;;39.70;17.27;;;3.60;99.90;;;;;;5016863;28;20025;-73
2021/01/11 03:29:31;;;;;;;42.28;16.60;;;3.60;99.90;;;;;;5034349;28;20120;-73
2021/01/11 03:31:57;;;;;;;40.30;16.67;;;3.60;99.90;;;;;;5033944;28;20148;-72
2021/01/11 03:34:22;;;;;;;43.22;17.48;;;3.60;99.90;;;;;;5034432;28;20469;-72
2021/01/11 03:36:48;;;;;;;38.42;16.83;;;3.60;99.90;;;;;;5033841;28;20026;-72
2021/01/11 03:39:14;;;;;;;41.60;17.10;;;3.60;99.90;;;;;;5034985;28;20030;-73
2021/01/11 03:41:41;;;;;;;42.30;18.48;;;3.50;99.90;;;;;;5034811;28;20025;-73
2021/01/11 03:44:08;;;;;;;49.63;18.95;;;3.60;99.90;;;;;;5016347;28;20064;-72
2021/01/11 03:46:34;;;;;;;42.20;18.55;;;3.50;99.90;;;;;;5034784;28;20021;-72
2021/01/11 03:48:59;;;;;;;47.28;18.20;;;3.50;99.90;;;;;;5034340;28;20380;-72
2021/01/11 03:51:25;;;;;;;48.47;16.23;;;3.50;99.90;;;;;;5033856;28;20026;-73
2021/01/11 03:53:51;;;;;;;53.33;18.38;;;3.50;99.90;;;;;;5034407;28;20021;-73
2021/01/11 03:56:16;;;;;;;47.30;17.70;;;3.50;99.90;;;;;;5034084;28;20022;-73
2021/01/11 03:58:42;;;;;;;38.90;16.85;;;3.50;99.90;;;;;;5016679;28;20067;-73
2021/01/11 04:01:08;;;;;;;53.72;18.35;;;3.50;99.90;;;;;;5034386;28;20017;-73
2021/01/11 04:03:34;;;;;;;45.35;18.10;;;3.50;99.90;;;;;;5016347;28;20508;-73
2021/01/11 04:06:00;;;;;;;51.83;18.77;;;3.50;99.90;;;;;;5033252;28;20061;-73
2021/01/11 04:08:26;;;;;;;53.10;19.40;;;3.50;99.90;;;;;;5033890;28;20100;-72
2021/01/11 04:10:52;;;;;;;48.85;18.02;;;3.50;99.90;;;;;;5034091;28;20038;-72
2021/01/11 04:13:19;;;;;;;49.25;18.95;;;3.50;99.90;;;;;;5034293;28;20470;-72
2021/01/11 04:15:45;;;;;;;48.92;18.15;;;3.50;99.90;;;;;;5034683;28;20470;-72
2021/01/11 04:18:11;;;;;;;47.85;17.92;;;3.60;99.90;;;;;;5034446;28;20100;-73
2021/01/11 04:20:37;;;;;;;48.58;18.67;;;3.60;99.90;;;;;;5034953;28;20121;-73
2021/01/11 04:23:03;;;;;;;52.47;18.17;;;3.50;99.90;;;;;;5016614;28;20545;-72
2021/01/11 04:25:29;;;;;;;58.65;19.55;;;3.60;99.90;;;;;;5034134;28;20025;-72
2021/01/11 04:28:01;;;;;;;58.55;20.40;;;3.50;99.90;;;;;;5034235;28;20535;-72
2021/01/11 04:30:28;;;;;;;53.88;17.73;;;3.50;99.90;;;;;;5016386;28;20056;-72
2021/01/11 04:32:54;;;;;;;54.17;19.15;;;3.50;99.90;;;;;;5034097;28;20055;-72
2021/01/11 04:35:23;;;;;;;55.00;18.08;;;3.60;99.90;;;;;;5016903;28;20381;-74
2021/01/11 04:37:49;;;;;;;55.78;18.63;;;3.50;99.90;;;;;;5016800;28;20469;-72
2021/01/11 04:40:14;;;;;;;61.55;19.77;;;3.60;99.90;;;;;;5034137;28;20033;-72
2021/01/11 04:43:11;;;;;;;56.00;18.92;;;3.60;99.90;;;;;;5033757;28;20070;-73
2021/01/11 04:45:37;;;;;;;57.22;19.42;;;3.60;99.90;;;;;;5034735;28;20083;-73
2021/01/11 04:48:03;;;;;;;59.15;18.55;;;3.60;99.90;;;;;;5033799;28;20030;-72
2021/01/11 04:50:29;;;;;;;52.88;18.83;;;3.60;99.90;;;;;;5033970;28;20072;-72
2021/01/11 04:52:55;;;;;;;60.67;20.05;;;3.60;99.90;;;;;;5016067;28;20025;-72
2021/01/11 04:55:21;;;;;;;52.15;18.08;;;3.60;99.90;;;;;;5033969;28;20025;-72
2021/01/11 04:57:52;;;;;;;56.60;18.45;;;3.60;99.90;;;;;;5016063;28;20029;-72
2021/01/11 05:00:21;;;;;;;53.55;19.02;;;3.70;99.90;;;;;;5033800;28;20032;-72
2021/01/11 05:02:56;;;;;;;53.38;18.70;;;3.70;99.90;;;;;;5033679;28;20013;-72
2021/01/11 05:05:22;;;;;;;51.90;17.85;;;3.70;99.90;;;;;;5033716;28;20025;-72
2021/01/11 05:07:48;;;;;;;52.42;18.58;;;3.70;99.90;;;;;;5033777;28;20025;-73
2021/01/11 05:10:20;;;;;;;51.47;18.52;;;3.70;99.90;;;;;;5016016;28;20025;-73
2021/01/11 05:13:01;;;;;;;55.63;19.10;;;3.70;99.90;;;;;;5016101;28;20021;-73
2021/01/11 05:15:29;;;;;;;57.65;18.38;;;3.80;99.90;;;;;;5034185;28;20385;-73
2021/01/11 05:17:55;;;;;;;53.88;19.40;;;3.80;99.90;;;;;;5034839;28;20108;-73
2021/01/11 05:20:27;;;;;;;49.47;17.85;;;3.80;99.90;;;;;;5019861;28;20108;-73
2021/01/11 05:22:54;;;;;;;47.25;18.10;;;3.90;99.90;;;;;;5019883;28;20032;-73
2021/01/11 05:25:22;;;;;;;44.47;15.68;;;3.90;99.90;;;;;;5036894;28;20029;-73
2021/01/11 05:28:02;;;;;;;47.20;16.55;;;3.90;99.90;;;;;;5037584;28;20026;-73
2021/01/11 05:30:35;;;;;;;48.13;17.13;;;3.90;99.90;;;;;;5019486;28;20029;-73
2021/01/11 05:33:01;;;;;;;44.13;16.25;;;3.90;99.90;;;;;;5037412;28;20417;-73
2021/01/11 05:35:27;;;;;;;47.83;17.27;;;4.00;99.90;;;;;;5037090;28;20028;-73
2021/01/11 05:37:59;;;;;;;44.15;14.10;;;3.90;99.90;;;;;;5019546;28;20033;-73
2021/01/11 05:40:29;;;;;;;38.25;14.38;;;3.90;99.90;;;;;;5019307;28;20025;-73
2021/01/11 05:42:56;;;;;;;39.28;15.30;;;3.90;99.90;;;;;;5019478;28;20064;-73
2021/01/11 05:45:30;;;;;;;43.78;16.30;;;4.00;99.90;;;;;;5019167;28;20431;-73
2021/01/11 05:48:04;;;;;;;36.42;14.90;;;4.00;99.90;;;;;;5036743;28;20063;-73
2021/01/11 05:50:47;;;;;;;39.78;14.43;;;4.00;99.90;;;;;;5036412;28;20030;-73
2021/01/11 05:53:21;;;;;;;38.25;14.40;;;4.00;99.90;;;;;;5037849;28;20018;-73
2021/01/11 05:55:48;;;;;;;39.30;15.27;;;4.00;99.90;;;;;;5036683;28;20550;-73
2021/01/11 05:58:14;;;;;;;41.45;16.08;;;4.00;99.90;;;;;;5036178;28;20022;-73
2021/01/11 06:00:41;;;;;;;27.98;11.60;;;4.10;99.90;;;;;;5036791;28;20446;-73
2021/01/11 06:03:09;;;;;;;34.95;14.27;;;4.10;99.90;;;;;;5036821;28;20109;-73
2021/01/11 06:05:36;;;;;;;38.30;15.13;;;4.10;99.90;;;;;;5018684;28;20029;-73
2021/01/11 06:08:04;;;;;;;39.85;14.88;;;4.10;99.90;;;;;;5036573;28;20033;-73
2021/01/11 06:10:30;;;;;;;36.03;15.07;;;4.10;99.90;;;;;;5036683;28;20481;-73
2021/01/11 06:12:56;;;;;;;46.40;15.23;;;4.10;99.90;;;;;;5018598;28;20260;-73
2021/01/11 06:15:24;;;;;;;33.20;12.63;;;4.50;99.90;;;;;;5036302;28;20027;-73
2021/01/11 06:17:51;;;;;;;38.58;15.30;;;4.10;99.90;;;;;;5036467;28;20487;-74
2021/01/11 06:20:22;;;;;;;36.45;14.10;;;4.10;99.90;;;;;;5035811;28;20377;-73
2021/01/11 06:22:51;;;;;;;40.67;16.27;;;4.10;99.90;;;;;;5036213;28;20104;-73
2021/01/11 06:25:20;;;;;;;40.70;15.02;;;4.20;99.90;;;;;;5017956;28;20025;-73
2021/01/11 06:28:08;;;;;;;36.38;14.73;;;4.10;99.90;;;;;;5036227;28;20034;-73
2021/01/11 06:30:36;;;;;;;31.27;11.98;;;4.20;99.90;;;;;;5035847;28;20025;-73
2021/01/11 06:33:06;;;;;;;35.20;14.60;;;4.10;99.90;;;;;;5018733;28;20030;-73
2021/01/11 06:35:32;;;;;;;36.20;15.70;;;4.20;99.90;;;;;;5018544;28;20432;-73
2021/01/11 06:38:08;;;;;;;41.08;18.55;;;4.20;99.90;;;;;;5036727;28;20080;-73
2021/01/11 06:40:34;;;;;;;32.72;13.93;;;4.20;99.90;;;;;;5035922;28;20030;-74
2021/01/11 06:43:01;;;;;;;36.25;14.93;;;4.10;99.90;;;;;;5036017;28;20021;-75
2021/01/11 06:45:38;;;;;;;46.28;16.98;;;4.10;99.90;;;;;;5017904;28;20032;-76
2021/01/11 06:48:08;;;;;;;37.78;14.80;;;4.10;99.90;;;;;;5035861;28;20052;-76
2021/01/11 06:50:34;;;;;;;34.22;14.30;;;4.00;99.90;;;;;;5035403;28;20482;-76
2021/01/11 06:53:01;;;;;;;37.92;15.88;;;3.90;99.90;;;;;;5017852;28;20068;-75
2021/01/11 06:55:27;;;;;;;35.15;13.25;;;3.90;99.90;;;;;;5035755;28;20031;-77
2021/01/11 06:57:56;;;;;;;33.28;13.88;;;4.00;99.90;;;;;;5035480;28;20076;-76
2021/01/11 07:00:33;;;;;;;30.85;13.50;;;4.00;99.90;;;;;;5017798;28;20033;-76
2021/01/11 07:02:59;;;;;;;35.17;13.57;;;4.10;99.90;;;;;;5036097;28;20485;-76
2021/01/11 07:05:35;;;;;;;34.05;13.07;;;4.10;99.90;;;;;;5017980;28;20022;-76
2021/01/11 07:08:06;;;;;;;29.02;11.95;;;4.10;99.90;;;;;;5017053;28;20041;-73
2021/01/11 07:10:34;;;;;;;30.58;11.98;;;4.10;99.90;;;;;;5034765;28;20030;-73
2021/01/11 07:13:18;;;;;;;30.70;11.68;;;4.10;99.90;;;;;;5034653;28;20072;-74
2021/01/11 07:15:56;;;;;;;23.40;9.50;;;4.10;99.90;;;;;;5034479;28;20022;-74
2021/01/11 07:18:36;;;;;;;27.90;11.18;;;4.10;99.90;;;;;;5034587;28;20033;-73
2021/01/11 07:21:14;;;;;;;28.10;11.98;;;4.10;99.90;;;;;;5016983;28;20481;-76
2021/01/11 07:23:39;;;;;;;23.10;10.40;;;4.10;99.90;;;;;;5034680;28;20021;-75
2021/01/11 07:26:11;;;;;;;21.85;10.02;;;4.10;99.90;;;;;;5017851;28;20026;-73
2021/01/11 07:28:37;;;;;;;24.75;11.00;;;4.10;99.90;;;;;;5017364;28;20033;-74
2021/01/11 07:31:03;;;;;;;21.35;10.13;;;4.10;99.90;;;;;;5016431;28;20025;-75
2021/01/11 07:33:28;;;;;;;24.98;10.68;;;4.10;99.90;;;;;;5034378;28;20075;-75
2021/01/11 07:35:54;;;;;;;23.77;10.63;;;4.20;99.90;;;;;;5033978;28;20029;-72
2021/01/11 07:38:19;;;;;;;21.77;8.98;;;4.20;99.90;;;;;;5035043;28;20442;-74
2021/01/11 07:40:45;;;;;;;23.33;11.00;;;4.20;99.90;;;;;;5033594;28;20092;-74
2021/01/11 07:43:10;;;;;;;24.85;11.65;;;4.10;99.90;;;;;;5016165;28;20033;-74
2021/01/11 07:45:36;;;;;;;25.38;9.98;;;4.20;99.90;;;;;;5016105;28;20123;-74
2021/01/11 07:48:02;;;;;;;25.73;11.10;;;4.20;99.90;;;;;;5033833;28;20033;-73
2021/01/11 07:50:31;;;;;;;23.27;10.93;;;4.20;99.90;;;;;;5033491;28;20037;-74
2021/01/11 07:52:58;;;;;;;29.85;11.77;;;4.20;99.90;;;;;;5034186;28;20017;-74
2021/01/11 07:55:28;;;;;;;22.73;10.27;;;4.20;99.90;;;;;;5033488;28;20075;-74
2021/01/11 07:58:03;;;;;;;21.65;10.27;;;3.40;99.90;;;;;;5033466;28;20547;-74
2021/01/11 08:00:29;;;;;;;24.52;11.40;;;4.20;99.90;;;;;;5034349;28;20026;-73
2021/01/11 08:02:55;;;;;;;23.05;10.90;;;4.20;99.90;;;;;;5033572;28;20112;-72
2021/01/11 08:05:22;;;;;;;21.05;11.18;;;4.20;99.90;;;;;;5034053;28;20065;-73
2021/01/11 08:08:01;;;;;;;22.63;11.15;;;4.10;99.90;;;;;;5033303;28;20100;-72
2021/01/11 08:10:27;;;;;;;23.10;10.50;;;4.20;99.90;;;;;;5034205;28;20392;-72
2021/01/11 08:12:53;;;;;;;22.33;10.20;;;4.20;99.90;;;;;;5033623;28;20018;-72
2021/01/11 08:15:19;;;;;;;22.88;10.35;;;4.20;99.90;;;;;;5033579;28;20029;-72
2021/01/11 08:17:45;;;;;;;22.30;9.80;;;4.10;99.90;;;;;;5016032;28;20021;-72
2021/01/11 08:20:11;;;;;;;20.92;10.25;;;4.20;99.90;;;;;;5033574;28;20426;-72
2021/01/11 08:22:37;;;;;;;25.08;10.93;;;4.20;99.90;;;;;;5033877;28;20029;-74
2021/01/11 08:25:03;;;;;;;31.15;12.50;;;4.10;99.90;;;;;;5033591;28;20540;-74
2021/01/11 08:27:46;;;;;;;25.75;10.90;;;4.10;99.90;;;;;;5033815;28;20082;-73
2021/01/11 08:30:16;;;;;;;24.77;10.68;;;4.10;99.90;;;;;;5015826;28;20022;-73
2021/01/11 08:32:42;;;;;;;23.50;10.23;;;4.20;99.90;;;;;;5033618;28;20108;-74
2021/01/11 08:35:10;;;;;;;22.40;10.18;;;4.20;99.90;;;;;;5033473;28;20057;-74
2021/01/11 08:37:36;;;;;;;21.58;9.48;;;4.20;99.90;;;;;;5015739;28;20075;-74
2021/01/11 08:40:27;;;;;;;28.40;10.48;;;4.30;99.90;;;;;;5033888;28;20025;-74
2021/01/11 08:42:52;;;;;;;21.77;8.95;;;4.20;99.90;;;;;;5021560;28;20037;-74
2021/01/11 08:45:36;;;;;;;22.40;9.77;;;4.20;99.90;;;;;;5015356;28;20021;-74
2021/01/11 08:48:07;;;;;;;21.25;9.52;;;4.20;99.90;;;;;;5033947;28;20462;-74
2021/01/11 08:50:35;;;;;;;22.55;9.57;;;4.20;99.90;;;;;;5033124;28;20040;-76
2021/01/11 08:53:23;;;;;;;20.58;10.00;;;4.20;99.90;;;;;;5018263;28;20028;-75
2021/01/11 08:56:01;;;;;;;21.10;8.90;;;4.30;99.90;;;;;;5037149;28;20433;-74
2021/01/11 08:58:34;;;;;;;22.40;7.85;;;4.30;99.90;;;;;;5019320;28;20056;-74
2021/01/11 09:01:26;;;;;;;20.45;7.72;;;4.30;99.90;;;;;;5019297;28;20029;-74
2021/01/11 09:03:58;;;;;;;17.90;8.20;;;4.30;99.90;;;;;;5036919;28;20056;-72
2021/01/11 09:06:43;;;;;;;17.55;8.07;;;4.30;99.90;;;;;;5019081;28;20057;-72
2021/01/11 09:09:17;;;;;;;20.67;9.07;;;4.30;99.90;;;;;;5036739;28;20026;-73
2021/01/11 09:11:46;;;;;;;21.70;9.02;;;4.30;99.90;;;;;;5019153;28;20075;-72
2021/01/11 09:14:12;;;;;;;17.63;7.40;;;4.30;99.90;;;;;;5036764;28;20500;-74
2021/01/11 09:16:46;;;;;;;16.27;7.85;;;4.40;99.90;;;;;;5018954;28;20013;-73
2021/01/11 09:19:19;;;;;;;23.17;8.60;;;4.30;99.90;;;;;;5019280;28;20032;-73
2021/01/11 09:22:00;;;;;;;21.80;8.15;;;4.40;99.90;;;;;;5019201;28;20022;-73
2021/01/11 09:24:27;;;;;;;21.88;8.73;;;4.40;99.90;;;;;;5018765;28;20029;-75
2021/01/11 09:26:53;;;;;;;17.35;7.22;;;4.40;99.90;;;;;;5036429;28;20017;-75
2021/01/11 09:29:19;;;;;;;14.82;6.30;;;4.40;99.90;;;;;;5018691;28;20072;-74
2021/01/11 09:31:45;;;;;;;18.05;7.05;;;4.40;99.90;;;;;;5018857;28;20433;-74
2021/01/11 09:34:10;;;;;;;15.82;7.07;;;4.40;99.90;;;;;;5036427;28;20056;-74
2021/01/11 09:36:38;;;;;;;16.38;8.00;;;4.40;99.90;;;;;;5018383;28;20056;-74
2021/01/11 09:39:09;;;;;;;17.30;7.05;;;4.40;99.90;;;;;;5036237;28;20026;-74
2021/01/11 09:41:53;;;;;;;16.77;7.00;;;4.40;99.90;;;;;;5036757;28;20021;-73
2021/01/11 09:44:20;;;;;;;15.52;6.45;;;4.50;99.90;;;;;;5036481;28;20036;-73
2021/01/11 09:46:48;;;;;;;15.23;7.03;;;4.50;99.90;;;;;;5035929;28;20060;-73
2021/01/11 09:49:14;;;;;;;20.13;7.68;;;4.50;99.90;;;;;;5036124;28;20172;-74
2021/01/11 09:51:40;;;;;;;14.75;5.60;;;4.60;99.90;;;;;;5018458;28;20025;-75
2021/01/11 09:54:07;;;;;;;13.95;6.50;;;4.60;99.90;;;;;;5036044;28;20017;-75
2021/01/11 09:56:34;;;;;;;11.13;5.32;;;4.70;99.90;;;;;;5036452;28;20026;-75
2021/01/11 09:59:00;;;;;;;15.75;6.68;;;4.70;99.90;;;;;;5018268;28;20017;-76
2021/01/11 10:01:44;;;;;;;13.55;5.82;;;4.70;99.90;;;;;;5036327;28;20481;-76
2021/01/11 10:04:12;;;;;;;7.10;3.45;;;4.70;99.90;;;;;;5035641;28;20032;-75
2021/01/11 10:06:50;;;;;;;10.23;4.70;;;4.70;99.90;;;;;;5017965;28;20053;-74
2021/01/11 10:09:22;;;;;;;9.80;4.40;;;4.70;99.90;;;;;;5036153;28;20056;-74
2021/01/11 10:11:50;;;;;;;12.98;4.43;;;4.70;99.90;;;;;;5017768;28;20025;-77
2021/01/11 10:14:16;;;;;;;8.40;3.70;;;4.70;99.90;;;;;;5018126;28;20029;-76
2021/01/11 10:16:43;;;;;;;9.52;4.72;;;4.80;99.90;;;;;;5017968;28;20014;-77
2021/01/11 10:19:10;;;;;;;8.35;3.22;;;4.90;99.90;;;;;;5017655;28;20017;-75
2021/01/11 10:21:37;;;;;;;9.25;3.72;;;4.80;99.90;;;;;;5035617;28;20429;-74
2021/01/11 10:24:04;;;;;;;8.63;3.95;;;4.80;99.90;;;;;;5035211;28;20026;-74
2021/01/11 10:26:30;;;;;;;9.05;3.25;;;4.80;99.90;;;;;;5017531;28;20029;-74
2021/01/11 10:28:55;;;;;;;7.22;3.55;;;4.80;99.90;;;;;;5035614;28;20068;-74
2021/01/11 10:31:21;;;;;;;7.35;3.47;;;4.80;99.90;;;;;;5035496;28;20442;-74
2021/01/11 10:33:48;;;;;;;10.25;4.53;;;4.80;99.90;;;;;;5035090;28;20024;-74
2021/01/11 10:36:15;;;;;;;8.30;4.15;;;4.80;99.90;;;;;;5017941;28;20059;-75
2021/01/11 10:38:42;;;;;;;9.30;3.30;;;4.90;99.90;;;;;;5035021;28;20047;-73
2021/01/11 10:41:13;;;;;;;7.53;3.53;;;4.90;99.90;;;;;;5017608;28;20070;-74
2021/01/11 10:43:39;;;;;;;10.48;4.13;;;4.90;99.90;;;;;;5035380;28;20029;-73
2021/01/11 10:46:04;;;;;;;10.70;4.45;;;4.80;99.90;;;;;;5035724;28;20036;-74
2021/01/11 10:48:30;;;;;;;8.60;3.78;;;4.90;99.90;;;;;;5035047;28;20115;-73
2021/01/11 10:50:55;;;;;;;10.73;3.80;;;4.90;99.90;;;;;;5085774;22;20179;-73
2021/01/11 10:53:21;;;;;;;7.35;3.08;;;4.90;99.90;;;;;;5056648;28;20024;-74
2021/01/11 10:55:47;;;;;;;6.97;3.75;;;4.90;99.90;;;;;;5056934;28;20023;-73
2021/01/11 10:58:12;;;;;;;7.30;3.60;;;4.90;99.90;;;;;;5056508;28;20020;-74
2021/01/11 11:00:38;;;;;;;6.82;3.17;;;5.00;99.90;;;;;;5056489;28;20032;-74
2021/01/11 11:03:08;;;;;;;9.57;3.92;;;5.00;99.90;;;;;;5074460;28;20024;-74
2021/01/11 11:05:34;;;;;;;11.80;4.55;;;5.00;99.90;;;;;;5074751;28;20497;-73
2021/01/11 11:07:59;;;;;;;9.80;3.88;;;5.10;99.90;;;;;;5074242;28;20044;-74
2021/01/11 11:10:25;;;;;;;6.15;2.60;;;5.10;99.90;;;;;;5056468;28;20074;-74
2021/01/11 11:12:51;;;;;;;10.43;4.28;;;5.10;99.90;;;;;;5074170;28;20071;-74
2021/01/11 11:15:17;;;;;;;6.30;3.40;;;5.10;99.90;;;;;;5073904;28;20016;-75
2021/01/11 11:17:43;;;;;;;9.85;3.10;;;5.20;99.90;;;;;;5056152;28;20430;-75
2021/01/11 11:20:09;;;;;;;6.15;3.13;;;5.20;99.90;;;;;;5056230;28;20115;-75
2021/01/11 11:22:35;;;;;;;10.23;3.40;;;5.20;99.90;;;;;;5056362;28;20392;-74
2021/01/11 11:25:06;;;;;;;9.50;3.92;;;5.20;99.90;;;;;;5056131;28;20021;-74
2021/01/11 11:27:33;;;;;;;8.48;3.10;;;5.20;99.90;;;;;;5089129;22;20024;-73
2021/01/11 11:29:59;;;;;;;7.57;3.67;;;5.20;99.90;;;;;;5094469;28;20035;-73
2021/01/11 11:32:25;;;;;;;10.18;4.03;;;5.30;99.90;;;;;;5094578;28;20024;-76
2021/01/11 11:34:50;;;;;;;7.13;3.33;;;5.40;99.90;;;;;;5076616;28;20372;-74
2021/01/11 11:37:18;;;;;;;8.02;4.15;;;5.40;99.90;;;;;;5094935;28;20149;-74
2021/01/11 11:39:44;;;;;;;10.17;3.83;;;5.40;99.90;;;;;;5094861;28;20079;-72
2021/01/11 11:42:09;;;;;;;8.02;4.22;;;5.40;99.90;;;;;;5094658;28;20097;-73
2021/01/11 11:44:35;;;;;;;13.15;5.07;;;5.40;99.90;;;;;;5076322;28;20069;-74
2021/01/11 11:50:16;;;;;;;11.02;4.13;;;5.30;99.90;;;;;;5082284;28;20077;-74
2021/01/11 11:52:43;;;;;;;9.23;4.00;;;5.30;99.90;;;;;;5075702;28;20016;-74
2021/01/11 11:55:12;;;;;;;10.13;4.45;;;5.30;99.90;;;;;;5094154;28;20020;-73
2021/01/11 11:57:42;;;;;;;9.50;4.05;;;5.30;99.90;;;;;;5093599;28;20038;-73
2021/01/11 12:00:14;;;;;;;10.75;4.13;;;5.30;99.90;;;;;;5094259;28;20024;-74
2021/01/11 12:02:40;;;;;;;7.90;3.28;;;5.20;99.90;;;;;;5075885;28;20438;-74
2021/01/11 12:05:14;;;;;;;9.10;3.67;;;5.30;99.90;;;;;;5075977;28;20016;-73
2021/01/11 12:07:40;;;;;;;9.07;4.28;;;5.30;99.90;;;;;;5093830;28;20048;-73
2021/01/11 12:10:08;;;;;;;8.13;3.83;;;5.30;99.90;;;;;;5075680;28;20070;-73
2021/01/11 12:12:34;;;;;;;10.55;3.67;;;5.40;99.90;;;;;;5075848;28;20118;-72
2021/01/11 12:15:01;;;;;;;10.50;3.60;;;5.40;99.90;;;;;;5093840;28;20020;-72
2021/01/11 12:17:27;;;;;;;10.27;4.78;;;5.30;99.90;;;;;;5075648;28;20392;-72
2021/01/11 12:19:53;;;;;;;13.55;4.90;;;5.30;99.90;;;;;;5075894;28;20020;-72
2021/01/11 12:22:18;;;;;;;8.57;4.65;;;5.30;99.90;;;;;;5094060;28;20028;-72
2021/01/11 12:24:44;;;;;;;7.07;3.40;;;5.30;99.90;;;;;;5093705;28;20032;-73
2021/01/11 12:27:09;;;;;;;10.57;4.68;;;5.40;99.90;;;;;;5095431;28;20077;-73
2021/01/11 12:29:35;;;;;;;10.38;4.93;;;5.40;99.90;;;;;;5098548;28;20512;-72
2021/01/11 12:32:10;;;;;;;11.60;5.07;;;5.30;99.90;;;;;;5079676;28;20016;-73
2021/01/11 12:34:40;;;;;;;7.10;4.28;;;5.30;99.90;;;;;;5080292;28;20065;-74
2021/01/11 12:37:06;;;;;;;13.55;5.28;;;5.30;99.90;;;;;;5098270;28;20020;-75
2021/01/11 12:39:32;;;;;;;10.00;5.40;;;5.30;99.90;;;;;;5097922;28;20043;-73
2021/01/11 12:41:58;;;;;;;11.02;5.63;;;5.30;99.90;;;;;;5097983;28;20047;-74
2021/01/11 12:44:24;;;;;;;12.52;5.75;;;5.30;99.90;;;;;;5097783;28;20028;-73
2021/01/11 12:46:50;;;;;;;10.85;4.22;;;5.30;99.90;;;;;;5097909;28;20028;-73
2021/01/11 12:49:16;;;;;;;14.57;5.65;;;5.30;99.90;;;;;;5097908;28;20027;-74
2021/01/11 12:51:41;;;;;;;12.23;4.82;;;5.30;99.90;;;;;;5062783;28;20027;-73
2021/01/11 12:54:07;;;;;;;8.50;4.65;;;5.30;99.90;;;;;;5079487;28;20059;-73
2021/01/11 12:56:32;;;;;;;9.95;4.63;;;5.40;99.90;;;;;;5097910;28;20414;-73